sensor_id;sensor_type;location;lat;lon;timestamp;pressure;altitude;pressure_sealevel;temperature;humidity
43364;BME280;40636;52.424;-1.948;2023-04-08T00:00:26;100673.84;;;2.41;100.00
43364;BME280;40636;52.424;-1.948;2023-04-08T00:02:53;100679.94;;;2.43;100.00
43364;BME280;40636;52.424;-1.948;2023-04-08T00:05:20;100686.06;;;2.37;100.00
43364;BME280;40636;52.424;-1.948;2023-04-08T00:07:46;100687.06;;;2.36;100.00
43364;BME280;40636;52.424;-1.948;2023-04-08T00:10:13;100681.72;;;2.28;100.00
43364;BME280;40636;52.424;-1.948;2023-04-08T00:12:40;100680.50;;;2.31;100.00
43364;BME280;40636;52.424;-1.948;2023-04-08T00:15:07;100678.00;;;2.29;100.00
43364;BME280;40636;52.424;-1.948;2023-04-08T00:17:33;100674.44;;;2.28;100.00
43364;BME280;40636;52.424;-1.948;2023-04-08T00:20:00;100683.09;;;2.24;100.00
43364;BME280;40636;52.424;-1.948;2023-04-08T00:22:27;100686.84;;;2.23;100.00
43364;BME280;40636;52.424;-1.948;2023-04-08T00:24:54;100681.09;;;2.18;100.00
43364;BME280;40636;52.424;-1.948;2023-04-08T00:27:21;100689.75;;;2.13;100.00
43364;BME280;40636;52.424;-1.948;2023-04-08T00:29:47;100678.06;;;2.13;100.00
43364;BME280;40636;52.424;-1.948;2023-04-08T00:32:14;100689.28;;;2.10;100.00
43364;BME280;40636;52.424;-1.948;2023-04-08T00:34:41;100676.44;;;2.03;100.00
43364;BME280;40636;52.424;-1.948;2023-04-08T00:37:07;100683.72;;;2.03;100.00
43364;BME280;40636;52.424;-1.948;2023-04-08T00:39:36;100688.28;;;2.02;100.00
43364;BME280;40636;52.424;-1.948;2023-04-08T00:42:03;100685.63;;;1.94;100.00
43364;BME280;40636;52.424;-1.948;2023-04-08T00:44:29;100691.03;;;1.94;100.00
43364;BME280;40636;52.424;-1.948;2023-04-08T00:46:56;100680.06;;;1.88;100.00
43364;BME280;40636;52.424;-1.948;2023-04-08T00:49:23;100681.75;;;1.89;100.00
43364;BME280;40636;52.424;-1.948;2023-04-08T00:51:50;100687.34;;;1.87;100.00
43364;BME280;40636;52.424;-1.948;2023-04-08T00:54:16;100693.94;;;1.85;100.00
43364;BME280;40636;52.424;-1.948;2023-04-08T00:56:43;100687.84;;;1.91;100.00
43364;BME280;40636;52.424;-1.948;2023-04-08T00:59:11;100693.59;;;1.88;100.00
43364;BME280;40636;52.424;-1.948;2023-04-08T01:04:27;100688.34;;;1.86;100.00
43364;BME280;40636;52.424;-1.948;2023-04-08T01:07:19;100695.84;;;1.76;100.00
43364;BME280;40636;52.424;-1.948;2023-04-08T01:09:51;100695.34;;;1.72;100.00
43364;BME280;40636;52.424;-1.948;2023-04-08T01:12:24;100694.19;;;1.67;100.00
43364;BME280;40636;52.424;-1.948;2023-04-08T01:14:58;100696.25;;;1.57;100.00
43364;BME280;40636;52.424;-1.948;2023-04-08T01:17:28;100702.81;;;1.62;100.00
43364;BME280;40636;52.424;-1.948;2023-04-08T01:19:58;100699.47;;;1.60;100.00
43364;BME280;40636;52.424;-1.948;2023-04-08T01:25:11;100697.63;;;1.44;100.00
43364;BME280;40636;52.424;-1.948;2023-04-08T01:27:41;100693.94;;;1.45;100.00
43364;BME280;40636;52.424;-1.948;2023-04-08T01:30:09;100699.16;;;1.47;100.00
43364;BME280;40636;52.424;-1.948;2023-04-08T01:32:37;100702.69;;;1.47;100.00
43364;BME280;40636;52.424;-1.948;2023-04-08T01:35:05;100699.16;;;1.47;100.00
43364;BME280;40636;52.424;-1.948;2023-04-08T01:37:33;100703.72;;;1.46;100.00
43364;BME280;40636;52.424;-1.948;2023-04-08T01:40:01;100706.75;;;1.43;100.00
43364;BME280;40636;52.424;-1.948;2023-04-08T01:42:28;100696.31;;;1.32;100.00
43364;BME280;40636;52.424;-1.948;2023-04-08T01:44:57;100700.19;;;1.30;100.00
43364;BME280;40636;52.424;-1.948;2023-04-08T01:47:25;100704.78;;;1.29;100.00
43364;BME280;40636;52.424;-1.948;2023-04-08T01:49:52;100698.66;;;1.27;100.00
43364;BME280;40636;52.424;-1.948;2023-04-08T01:52:21;100699.53;;;1.27;100.00
43364;BME280;40636;52.424;-1.948;2023-04-08T01:54:48;100699.56;;;1.19;100.00
43364;BME280;40636;52.424;-1.948;2023-04-08T01:57:20;100707.81;;;1.18;100.00
43364;BME280;40636;52.424;-1.948;2023-04-08T01:59:51;100703.44;;;1.17;100.00
43364;BME280;40636;52.424;-1.948;2023-04-08T02:02:23;100705.28;;;1.16;100.00
43364;BME280;40636;52.424;-1.948;2023-04-08T02:04:52;100705.09;;;1.18;100.00
43364;BME280;40636;52.424;-1.948;2023-04-08T02:07:19;100710.19;;;1.13;100.00
43364;BME280;40636;52.424;-1.948;2023-04-08T02:09:46;100705.81;;;1.12;100.00
43364;BME280;40636;52.424;-1.948;2023-04-08T02:12:13;100707.84;;;1.01;100.00
43364;BME280;40636;52.424;-1.948;2023-04-08T02:14:40;100708.50;;;1.04;100.00
43364;BME280;40636;52.424;-1.948;2023-04-08T02:17:20;100710.22;;;1.05;100.00
43364;BME280;40636;52.424;-1.948;2023-04-08T02:19:53;100704.31;;;1.01;100.00
43364;BME280;40636;52.424;-1.948;2023-04-08T02:22:30;100707.16;;;0.99;100.00
43364;BME280;40636;52.424;-1.948;2023-04-08T02:24:58;100711.56;;;0.92;100.00
43364;BME280;40636;52.424;-1.948;2023-04-08T02:27:26;100717.97;;;0.83;100.00
43364;BME280;40636;52.424;-1.948;2023-04-08T02:29:55;100713.25;;;0.85;100.00
43364;BME280;40636;52.424;-1.948;2023-04-08T02:32:24;100712.22;;;0.86;100.00
43364;BME280;40636;52.424;-1.948;2023-04-08T02:34:52;100723.41;;;0.91;100.00
43364;BME280;40636;52.424;-1.948;2023-04-08T02:37:20;100718.66;;;0.85;100.00
43364;BME280;40636;52.424;-1.948;2023-04-08T02:39:48;100726.22;;;0.82;100.00
43364;BME280;40636;52.424;-1.948;2023-04-08T02:42:15;100730.66;;;0.83;100.00
43364;BME280;40636;52.424;-1.948;2023-04-08T02:44:42;100725.25;;;0.83;100.00
43364;BME280;40636;52.424;-1.948;2023-04-08T02:47:09;100724.72;;;0.79;100.00
43364;BME280;40636;52.424;-1.948;2023-04-08T02:49:35;100733.66;;;0.71;100.00
43364;BME280;40636;52.424;-1.948;2023-04-08T02:52:02;100727.63;;;0.78;100.00
43364;BME280;40636;52.424;-1.948;2023-04-08T02:54:29;100730.13;;;0.71;100.00
43364;BME280;40636;52.424;-1.948;2023-04-08T02:56:56;100733.66;;;0.71;100.00
43364;BME280;40636;52.424;-1.948;2023-04-08T02:59:23;100738.22;;;0.63;100.00
43364;BME280;40636;52.424;-1.948;2023-04-08T03:01:49;100739.94;;;0.64;100.00
43364;BME280;40636;52.424;-1.948;2023-04-08T03:04:16;100740.75;;;0.64;100.00
43364;BME280;40636;52.424;-1.948;2023-04-08T03:06:43;100744.63;;;0.62;100.00
43364;BME280;40636;52.424;-1.948;2023-04-08T03:09:09;100741.75;;;0.55;100.00
43364;BME280;40636;52.424;-1.948;2023-04-08T03:11:36;100744.94;;;0.59;100.00
43364;BME280;40636;52.424;-1.948;2023-04-08T03:14:03;100736.19;;;0.57;100.00
43364;BME280;40636;52.424;-1.948;2023-04-08T03:16:29;100740.22;;;0.53;100.00
43364;BME280;40636;52.424;-1.948;2023-04-08T03:18:56;100746.66;;;0.52;100.00
43364;BME280;40636;52.424;-1.948;2023-04-08T03:21:23;100745.25;;;0.39;100.00
43364;BME280;40636;52.424;-1.948;2023-04-08T03:23:50;100744.09;;;0.42;100.00
43364;BME280;40636;52.424;-1.948;2023-04-08T03:26:16;100744.97;;;0.50;100.00
43364;BME280;40636;52.424;-1.948;2023-04-08T03:28:43;100748.47;;;0.43;100.00
43364;BME280;40636;52.424;-1.948;2023-04-08T03:31:10;100748.78;;;0.40;100.00
43364;BME280;40636;52.424;-1.948;2023-04-08T03:33:37;100745.94;;;0.41;100.00
43364;BME280;40636;52.424;-1.948;2023-04-08T03:36:03;100744.41;;;0.39;100.00
43364;BME280;40636;52.424;-1.948;2023-04-08T03:38:30;100748.47;;;0.43;100.00
43364;BME280;40636;52.424;-1.948;2023-04-08T03:40:57;100749.50;;;0.42;100.00
43364;BME280;40636;52.424;-1.948;2023-04-08T03:43:24;100749.63;;;0.40;100.00
43364;BME280;40636;52.424;-1.948;2023-04-08T03:45:51;100745.09;;;0.33;100.00
43364;BME280;40636;52.424;-1.948;2023-04-08T03:48:18;100743.72;;;0.29;100.00
43364;BME280;40636;52.424;-1.948;2023-04-08T03:50:44;100748.28;;;0.36;100.00
43364;BME280;40636;52.424;-1.948;2023-04-08T03:53:11;100744.75;;;0.28;100.00
43364;BME280;40636;52.424;-1.948;2023-04-08T03:55:38;100746.75;;;0.25;100.00
43364;BME280;40636;52.424;-1.948;2023-04-08T03:58:05;100748.91;;;0.22;100.00
43364;BME280;40636;52.424;-1.948;2023-04-08T04:00:32;100749.56;;;0.16;100.00
43364;BME280;40636;52.424;-1.948;2023-04-08T04:02:58;100748.56;;;0.17;100.00
43364;BME280;40636;52.424;-1.948;2023-04-08T04:05:25;100744.75;;;0.28;100.00
43364;BME280;40636;52.424;-1.948;2023-04-08T04:07:52;100746.06;;;0.23;100.00
43364;BME280;40636;52.424;-1.948;2023-04-08T04:10:18;100747.56;;;0.26;100.00
43364;BME280;40636;52.424;-1.948;2023-04-08T04:12:45;100755.66;;;0.18;100.00
43364;BME280;40636;52.424;-1.948;2023-04-08T04:15:13;100748.22;;;0.12;100.00
43364;BME280;40636;52.424;-1.948;2023-04-08T04:17:40;100750.56;;;0.07;100.00
43364;BME280;40636;52.424;-1.948;2023-04-08T04:20:07;100755.59;;;0.02;100.00
43364;BME280;40636;52.424;-1.948;2023-04-08T04:22:34;100752.19;;;-0.01;100.00
43364;BME280;40636;52.424;-1.948;2023-04-08T04:25:00;100756.75;;;-0.01;100.00
43364;BME280;40636;52.424;-1.948;2023-04-08T04:27:27;100766.38;;;0.02;100.00
43364;BME280;40636;52.424;-1.948;2023-04-08T04:29:54;100755.78;;;0.00;100.00
43364;BME280;40636;52.424;-1.948;2023-04-08T04:32:20;100761.31;;;-0.02;100.00
43364;BME280;40636;52.424;-1.948;2023-04-08T04:34:47;100762.00;;;0.01;100.00
43364;BME280;40636;52.424;-1.948;2023-04-08T04:37:13;100765.59;;;0.09;100.00
43364;BME280;40636;52.424;-1.948;2023-04-08T04:39:40;100768.06;;;0.03;100.00
43364;BME280;40636;52.424;-1.948;2023-04-08T04:42:07;100766.91;;;0.05;100.00
43364;BME280;40636;52.424;-1.948;2023-04-08T04:44:34;100763.34;;;-0.04;100.00
43364;BME280;40636;52.424;-1.948;2023-04-08T04:47:01;100768.72;;;-0.04;100.00
43364;BME280;40636;52.424;-1.948;2023-04-08T04:49:28;100772.09;;;-0.02;100.00
43364;BME280;40636;52.424;-1.948;2023-04-08T04:51:54;100780.69;;;-0.06;100.00
43364;BME280;40636;52.424;-1.948;2023-04-08T04:54:21;100779.84;;;-0.07;100.00
43364;BME280;40636;52.424;-1.948;2023-04-08T04:56:47;100780.31;;;-0.11;100.00
43364;BME280;40636;52.424;-1.948;2023-04-08T04:59:14;100783.13;;;-0.21;100.00
43364;BME280;40636;52.424;-1.948;2023-04-08T05:01:41;100777.09;;;-0.15;100.00
43364;BME280;40636;52.424;-1.948;2023-04-08T05:04:08;100794.81;;;-0.12;100.00
43364;BME280;40636;52.424;-1.948;2023-04-08T05:06:34;100790.44;;;-0.13;100.00
43364;BME280;40636;52.424;-1.948;2023-04-08T05:09:01;100791.09;;;-0.11;100.00
43364;BME280;40636;52.424;-1.948;2023-04-08T05:11:28;100800.69;;;-0.17;100.00
43364;BME280;40636;52.424;-1.948;2023-04-08T05:13:54;100806.41;;;-0.20;100.00
43364;BME280;40636;52.424;-1.948;2023-04-08T05:16:21;100801.97;;;-0.29;100.00
43364;BME280;40636;52.424;-1.948;2023-04-08T05:18:48;100805.38;;;-0.19;100.00
43364;BME280;40636;52.424;-1.948;2023-04-08T05:21:15;100800.00;;;-0.19;100.00
43364;BME280;40636;52.424;-1.948;2023-04-08T05:23:42;100807.06;;;-0.26;100.00
43364;BME280;40636;52.424;-1.948;2023-04-08T05:26:08;100807.25;;;-0.19;100.00
43364;BME280;40636;52.424;-1.948;2023-04-08T05:28:35;100808.44;;;-0.22;100.00
43364;BME280;40636;52.424;-1.948;2023-04-08T05:31:02;100812.63;;;-0.19;100.00
43364;BME280;40636;52.424;-1.948;2023-04-08T05:33:28;100821.25;;;-0.16;100.00
43364;BME280;40636;52.424;-1.948;2023-04-08T05:35:55;100821.75;;;-0.20;100.00
43364;BME280;40636;52.424;-1.948;2023-04-08T05:38:22;100825.97;;;-0.18;100.00
43364;BME280;40636;52.424;-1.948;2023-04-08T05:40:48;100826.59;;;-0.24;100.00
43364;BME280;40636;52.424;-1.948;2023-04-08T05:43:16;100828.19;;;-0.13;100.00
43364;BME280;40636;52.424;-1.948;2023-04-08T05:45:43;100835.06;;;-0.19;100.00
43364;BME280;40636;52.424;-1.948;2023-04-08T05:48:09;100836.25;;;-0.21;100.00
43364;BME280;40636;52.424;-1.948;2023-04-08T05:50:36;100828.28;;;-0.23;100.00
43364;BME280;40636;52.424;-1.948;2023-04-08T05:53:03;100837.63;;;-0.17;100.00
43364;BME280;40636;52.424;-1.948;2023-04-08T05:55:29;100842.16;;;-0.18;100.00
43364;BME280;40636;52.424;-1.948;2023-04-08T05:57:56;100842.16;;;-0.18;100.00
43364;BME280;40636;52.424;-1.948;2023-04-08T06:00:23;100842.84;;;-0.16;100.00
43364;BME280;40636;52.424;-1.948;2023-04-08T06:02:50;100839.84;;;-0.13;100.00
43364;BME280;40636;52.424;-1.948;2023-04-08T06:05:17;100847.94;;;-0.05;100.00
43364;BME280;40636;52.424;-1.948;2023-04-08T06:07:44;100846.97;;;-0.04;100.00
43364;BME280;40636;52.424;-1.948;2023-04-08T06:10:11;100849.66;;;-0.04;100.00
43364;BME280;40636;52.424;-1.948;2023-04-08T06:12:38;100851.72;;;0.03;100.00
43364;BME280;40636;52.424;-1.948;2023-04-08T06:15:06;100852.44;;;0.05;100.00
43364;BME280;40636;52.424;-1.948;2023-04-08T06:17:37;100853.16;;;0.15;100.00
43364;BME280;40636;52.424;-1.948;2023-04-08T06:20:05;100864.00;;;0.23;100.00
43364;BME280;40636;52.424;-1.948;2023-04-08T06:22:31;100854.72;;;0.25;100.00
43364;BME280;40636;52.424;-1.948;2023-04-08T06:24:58;100851.56;;;0.38;100.00
43364;BME280;40636;52.424;-1.948;2023-04-08T06:27:25;100858.88;;;0.46;100.00
43364;BME280;40636;52.424;-1.948;2023-04-08T06:29:51;100859.34;;;0.49;100.00
43364;BME280;40636;52.424;-1.948;2023-04-08T06:32:18;100860.59;;;0.55;100.00
43364;BME280;40636;52.424;-1.948;2023-04-08T06:34:45;100862.13;;;0.66;100.00
43364;BME280;40636;52.424;-1.948;2023-04-08T06:37:12;100864.03;;;0.82;100.00
43364;BME280;40636;52.424;-1.948;2023-04-08T06:39:39;100860.53;;;0.97;100.00
43364;BME280;40636;52.424;-1.948;2023-04-08T06:42:05;100861.25;;;1.24;100.00
43364;BME280;40636;52.424;-1.948;2023-04-08T06:44:32;100860.06;;;1.43;100.00
43364;BME280;40636;52.424;-1.948;2023-04-08T06:46:59;100858.19;;;1.68;100.00
43364;BME280;40636;52.424;-1.948;2023-04-08T06:49:26;100853.28;;;1.88;100.00
43364;BME280;40636;52.424;-1.948;2023-04-08T06:51:53;100861.00;;;2.07;100.00
43364;BME280;40636;52.424;-1.948;2023-04-08T06:54:19;100863.50;;;2.33;100.00
43364;BME280;40636;52.424;-1.948;2023-04-08T06:56:46;100854.94;;;2.52;100.00
43364;BME280;40636;52.424;-1.948;2023-04-08T06:59:13;100853.16;;;2.68;100.00
43364;BME280;40636;52.424;-1.948;2023-04-08T07:01:39;100866.31;;;2.87;100.00
43364;BME280;40636;52.424;-1.948;2023-04-08T07:04:07;100855.63;;;3.09;100.00
43364;BME280;40636;52.424;-1.948;2023-04-08T07:06:34;100866.34;;;3.33;100.00
43364;BME280;40636;52.424;-1.948;2023-04-08T07:09:00;100864.50;;;3.48;100.00
43364;BME280;40636;52.424;-1.948;2023-04-08T07:11:27;100869.63;;;3.66;100.00
43364;BME280;40636;52.424;-1.948;2023-04-08T07:13:54;100872.97;;;3.91;100.00
43364;BME280;40636;52.424;-1.948;2023-04-08T07:16:21;100870.75;;;4.10;100.00
43364;BME280;40636;52.424;-1.948;2023-04-08T07:18:48;100874.78;;;4.28;100.00
43364;BME280;40636;52.424;-1.948;2023-04-08T07:21:15;100870.66;;;4.47;100.00
43364;BME280;40636;52.424;-1.948;2023-04-08T07:23:43;100877.88;;;4.70;100.00
43364;BME280;40636;52.424;-1.948;2023-04-08T07:26:10;100880.38;;;4.86;100.00
43364;BME280;40636;52.424;-1.948;2023-04-08T07:28:36;100874.06;;;5.00;100.00
43364;BME280;40636;52.424;-1.948;2023-04-08T07:31:10;100877.31;;;5.11;100.00
43364;BME280;40636;52.424;-1.948;2023-04-08T07:33:37;100878.22;;;5.18;100.00
43364;BME280;40636;52.424;-1.948;2023-04-08T07:36:03;100879.16;;;5.25;100.00
43364;BME280;40636;52.424;-1.948;2023-04-08T07:38:30;100875.84;;;5.29;100.00
43364;BME280;40636;52.424;-1.948;2023-04-08T07:40:57;100889.13;;;5.39;100.00
43364;BME280;40636;52.424;-1.948;2023-04-08T07:43:24;100887.59;;;5.51;100.00
43364;BME280;40636;52.424;-1.948;2023-04-08T07:45:50;100889.59;;;5.64;100.00
43364;BME280;40636;52.424;-1.948;2023-04-08T07:48:17;100886.34;;;5.75;100.00
43364;BME280;40636;52.424;-1.948;2023-04-08T07:50:44;100899.63;;;5.85;100.00
43364;BME280;40636;52.424;-1.948;2023-04-08T07:53:32;100895.38;;;5.97;100.00
43364;BME280;40636;52.424;-1.948;2023-04-08T07:56:00;100897.94;;;6.05;100.00
43364;BME280;40636;52.424;-1.948;2023-04-08T07:58:27;100896.09;;;6.13;100.00
43364;BME280;40636;52.424;-1.948;2023-04-08T08:00:53;100891.75;;;6.18;100.00
43364;BME280;40636;52.424;-1.948;2023-04-08T08:03:20;100894.75;;;6.30;100.00
43364;BME280;40636;52.424;-1.948;2023-04-08T08:05:47;100887.28;;;6.39;100.00
43364;BME280;40636;52.424;-1.948;2023-04-08T08:08:23;100882.34;;;6.55;100.00
43364;BME280;40636;52.424;-1.948;2023-04-08T08:10:50;100887.22;;;6.67;100.00
43364;BME280;40636;52.424;-1.948;2023-04-08T08:13:17;100892.50;;;6.75;100.00
43364;BME280;40636;52.424;-1.948;2023-04-08T08:15:51;100896.34;;;6.87;100.00
43364;BME280;40636;52.424;-1.948;2023-04-08T08:18:19;100894.72;;;6.99;100.00
43364;BME280;40636;52.424;-1.948;2023-04-08T08:20:46;100898.53;;;7.11;100.00
43364;BME280;40636;52.424;-1.948;2023-04-08T08:23:12;100902.34;;;7.17;100.00
43364;BME280;40636;52.424;-1.948;2023-04-08T08:25:39;100902.38;;;7.24;100.00
43364;BME280;40636;52.424;-1.948;2023-04-08T08:28:06;100908.06;;;7.35;100.00
43364;BME280;40636;52.424;-1.948;2023-04-08T08:30:32;100902.00;;;7.47;100.00
43364;BME280;40636;52.424;-1.948;2023-04-08T08:32:59;100903.09;;;7.59;100.00
43364;BME280;40636;52.424;-1.948;2023-04-08T08:35:26;100908.34;;;7.74;100.00
43364;BME280;40636;52.424;-1.948;2023-04-08T08:37:53;100903.09;;;7.85;100.00
43364;BME280;40636;52.424;-1.948;2023-04-08T08:40:19;100907.94;;;7.97;100.00
43364;BME280;40636;52.424;-1.948;2023-04-08T08:42:50;100913.66;;;8.08;100.00
43364;BME280;40636;52.424;-1.948;2023-04-08T08:45:20;100906.25;;;8.16;100.00
43364;BME280;40636;52.424;-1.948;2023-04-08T08:47:47;100911.75;;;8.22;100.00
43364;BME280;40636;52.424;-1.948;2023-04-08T08:50:17;100912.97;;;8.33;100.00
43364;BME280;40636;52.424;-1.948;2023-04-08T08:52:50;100916.16;;;8.43;100.00
43364;BME280;40636;52.424;-1.948;2023-04-08T08:55:18;100916.78;;;8.58;100.00
43364;BME280;40636;52.424;-1.948;2023-04-08T08:58:05;100915.03;;;8.71;100.00
43364;BME280;40636;52.424;-1.948;2023-04-08T09:00:37;100912.06;;;8.79;100.00
43364;BME280;40636;52.424;-1.948;2023-04-08T09:03:24;100916.25;;;8.88;100.00
43364;BME280;40636;52.424;-1.948;2023-04-08T09:05:57;100914.72;;;8.99;100.00
43364;BME280;40636;52.424;-1.948;2023-04-08T09:08:34;100920.38;;;9.10;100.00
43364;BME280;40636;52.424;-1.948;2023-04-08T09:11:16;100912.94;;;9.24;100.00
43364;BME280;40636;52.424;-1.948;2023-04-08T09:13:44;100917.13;;;9.33;100.00
43364;BME280;40636;52.424;-1.948;2023-04-08T09:16:13;100914.06;;;9.48;100.00
43364;BME280;40636;52.424;-1.948;2023-04-08T09:18:42;100918.41;;;9.62;100.00
43364;BME280;40636;52.424;-1.948;2023-04-08T09:21:11;100913.06;;;9.74;100.00
43364;BME280;40636;52.424;-1.948;2023-04-08T09:23:42;100914.25;;;9.85;100.00
43364;BME280;40636;52.424;-1.948;2023-04-08T09:26:14;100916.28;;;9.96;100.00
43364;BME280;40636;52.424;-1.948;2023-04-08T09:28:43;100919.81;;;10.03;100.00
43364;BME280;40636;52.424;-1.948;2023-04-08T09:31:21;100912.53;;;10.15;100.00
43364;BME280;40636;52.424;-1.948;2023-04-08T09:33:49;100913.34;;;10.23;100.00
43364;BME280;40636;52.424;-1.948;2023-04-08T09:36:18;100918.56;;;10.31;100.00
43364;BME280;40636;52.424;-1.948;2023-04-08T09:38:45;100918.22;;;10.46;100.00
43364;BME280;40636;52.424;-1.948;2023-04-08T09:41:14;100907.16;;;10.52;100.00
43364;BME280;40636;52.424;-1.948;2023-04-08T09:43:51;100920.59;;;10.60;100.00
43364;BME280;40636;52.424;-1.948;2023-04-08T09:49:05;100911.09;;;10.81;100.00
43364;BME280;40636;52.424;-1.948;2023-04-08T09:51:48;100914.59;;;10.88;100.00
43364;BME280;40636;52.424;-1.948;2023-04-08T09:54:19;100912.38;;;10.97;100.00
43364;BME280;40636;52.424;-1.948;2023-04-08T09:56:51;100914.88;;;10.99;100.00
43364;BME280;40636;52.424;-1.948;2023-04-08T09:59:20;100911.81;;;11.07;100.00
43364;BME280;40636;52.424;-1.948;2023-04-08T10:01:53;100915.56;;;11.12;100.00
43364;BME280;40636;52.424;-1.948;2023-04-08T10:04:23;100920.59;;;11.15;100.00
43364;BME280;40636;52.424;-1.948;2023-04-08T10:06:57;100914.34;;;11.27;100.00
43364;BME280;40636;52.424;-1.948;2023-04-08T10:09:26;100914.50;;;11.43;100.00
43364;BME280;40636;52.424;-1.948;2023-04-08T10:11:54;100920.31;;;11.54;100.00
43364;BME280;40636;52.424;-1.948;2023-04-08T10:14:21;100922.97;;;11.60;100.00
43364;BME280;40636;52.424;-1.948;2023-04-08T10:16:48;100918.44;;;11.66;100.00
43364;BME280;40636;52.424;-1.948;2023-04-08T10:19:36;100911.84;;;11.67;100.00
43364;BME280;40636;52.424;-1.948;2023-04-08T10:27:44;100916.50;;;11.66;100.00
43364;BME280;40636;52.424;-1.948;2023-04-08T10:32:59;100908.72;;;11.93;100.00
43364;BME280;40636;52.424;-1.948;2023-04-08T10:35:29;100902.31;;;12.00;95.09
43364;BME280;40636;52.424;-1.948;2023-04-08T10:37:57;100906.22;;;11.92;84.55
43364;BME280;40636;52.424;-1.948;2023-04-08T10:40:24;100908.06;;;11.80;82.13
43364;BME280;40636;52.424;-1.948;2023-04-08T10:42:55;100902.81;;;11.78;93.46
43364;BME280;40636;52.424;-1.948;2023-04-08T10:45:22;100904.25;;;11.81;89.55
43364;BME280;40636;52.424;-1.948;2023-04-08T10:47:49;100897.31;;;11.78;90.96
43364;BME280;40636;52.424;-1.948;2023-04-08T10:50:18;100898.22;;;11.90;96.79
43364;BME280;40636;52.424;-1.948;2023-04-08T10:52:52;100894.03;;;12.11;99.30
43364;BME280;40636;52.424;-1.948;2023-04-08T10:55:22;100898.97;;;12.21;98.09
43364;BME280;40636;52.424;-1.948;2023-04-08T10:57:50;100897.53;;;12.18;96.72
43364;BME280;40636;52.424;-1.948;2023-04-08T11:00:17;100902.50;;;11.98;100.00
43364;BME280;40636;52.424;-1.948;2023-04-08T11:02:44;100894.00;;;11.88;100.00
43364;BME280;40636;52.424;-1.948;2023-04-08T11:05:11;100898.94;;;11.98;100.00
43364;BME280;40636;52.424;-1.948;2023-04-08T11:07:41;100897.63;;;12.00;100.00
43364;BME280;40636;52.424;-1.948;2023-04-08T11:10:08;100897.50;;;12.07;100.00
43364;BME280;40636;52.424;-1.948;2023-04-08T11:12:36;100892.75;;;12.14;100.00
43364;BME280;40636;52.424;-1.948;2023-04-08T11:15:03;100901.00;;;12.26;97.08
43364;BME280;40636;52.424;-1.948;2023-04-08T11:17:33;100888.56;;;12.35;95.94
43364;BME280;40636;52.424;-1.948;2023-04-08T11:20:00;100887.25;;;12.49;100.00
43364;BME280;40636;52.424;-1.948;2023-04-08T11:22:32;100886.41;;;12.49;100.00
43364;BME280;40636;52.424;-1.948;2023-04-08T11:25:01;100889.88;;;12.44;99.13
43364;BME280;40636;52.424;-1.948;2023-04-08T11:27:28;100884.25;;;12.39;100.00
43364;BME280;40636;52.424;-1.948;2023-04-08T11:29:55;100887.00;;;12.27;92.93
43364;BME280;40636;52.424;-1.948;2023-04-08T11:32:22;100874.56;;;12.25;100.00
43364;BME280;40636;52.424;-1.948;2023-04-08T11:34:52;100885.31;;;12.26;100.00
43364;BME280;40636;52.424;-1.948;2023-04-08T11:37:19;100888.06;;;12.26;100.00
43364;BME280;40636;52.424;-1.948;2023-04-08T11:39:46;100879.47;;;12.34;100.00
43364;BME280;40636;52.424;-1.948;2023-04-08T11:42:29;100883.31;;;12.45;100.00
43364;BME280;40636;52.424;-1.948;2023-04-08T11:44:57;100876.50;;;12.36;100.00
43364;BME280;40636;52.424;-1.948;2023-04-08T11:47:33;100883.75;;;12.30;100.00
43364;BME280;40636;52.424;-1.948;2023-04-08T11:50:00;100883.66;;;12.25;99.90
43364;BME280;40636;52.424;-1.948;2023-04-08T11:58:03;100886.75;;;12.17;100.00
43364;BME280;40636;52.424;-1.948;2023-04-08T12:00:30;100879.81;;;12.26;100.00
43364;BME280;40636;52.424;-1.948;2023-04-08T12:02:58;100879.47;;;12.46;100.00
43364;BME280;40636;52.424;-1.948;2023-04-08T12:05:25;100884.94;;;12.69;100.00
43364;BME280;40636;52.424;-1.948;2023-04-08T12:07:51;100876.16;;;12.96;100.00
43364;BME280;40636;52.424;-1.948;2023-04-08T12:10:18;100875.97;;;13.14;100.00
43364;BME280;40636;52.424;-1.948;2023-04-08T12:12:45;100878.84;;;13.19;100.00
43364;BME280;40636;52.424;-1.948;2023-04-08T12:15:11;100882.22;;;13.10;100.00
43364;BME280;40636;52.424;-1.948;2023-04-08T12:17:38;100882.88;;;12.88;100.00
43364;BME280;40636;52.424;-1.948;2023-04-08T12:20:05;100880.28;;;12.82;100.00
43364;BME280;40636;52.424;-1.948;2023-04-08T12:22:33;100875.59;;;12.70;100.00
43364;BME280;40636;52.424;-1.948;2023-04-08T12:24:59;100877.16;;;12.66;100.00
43364;BME280;40636;52.424;-1.948;2023-04-08T12:27:29;100881.13;;;12.47;97.84
43364;BME280;40636;52.424;-1.948;2023-04-08T12:29:56;100871.91;;;12.53;100.00
43364;BME280;40636;52.424;-1.948;2023-04-08T12:32:23;100874.81;;;12.47;96.27
43364;BME280;40636;52.424;-1.948;2023-04-08T12:34:51;100875.13;;;12.74;100.00
43364;BME280;40636;52.424;-1.948;2023-04-08T12:37:18;100865.63;;;12.93;100.00
43364;BME280;40636;52.424;-1.948;2023-04-08T12:39:46;100863.88;;;13.15;100.00
43364;BME280;40636;52.424;-1.948;2023-04-08T12:42:13;100863.28;;;13.13;87.85
43364;BME280;40636;52.424;-1.948;2023-04-08T12:44:40;100858.16;;;13.05;98.35
43364;BME280;40636;52.424;-1.948;2023-04-08T12:47:07;100861.22;;;13.20;100.00
43364;BME280;40636;52.424;-1.948;2023-04-08T12:49:34;100875.34;;;13.36;100.00
43364;BME280;40636;52.424;-1.948;2023-04-08T12:52:14;100877.94;;;13.42;100.00
43364;BME280;40636;52.424;-1.948;2023-04-08T12:54:41;100865.50;;;13.40;99.72
43364;BME280;40636;52.424;-1.948;2023-04-08T12:57:08;100865.88;;;13.20;96.43
43364;BME280;40636;52.424;-1.948;2023-04-08T12:59:35;100871.63;;;12.90;100.00
43364;BME280;40636;52.424;-1.948;2023-04-08T13:02:03;100871.50;;;12.85;100.00
43364;BME280;40636;52.424;-1.948;2023-04-08T13:04:30;100868.28;;;12.76;100.00